createdAt,value
2022-07-28T00:02:23.565Z,15.20
2022-07-28T00:04:53.899Z,15.20
2022-07-28T00:07:24.962Z,15.20
2022-07-28T00:09:58.238Z,15.20
2022-07-28T00:12:28.478Z,15.20
2022-07-28T00:14:56.960Z,15.10
2022-07-28T00:17:33.719Z,15.10
2022-07-28T00:20:04.124Z,15.10
2022-07-28T00:22:40.494Z,15.10
2022-07-28T00:25:10.593Z,15.00
2022-07-28T00:27:41.410Z,15.00
2022-07-28T00:30:10.172Z,15.00
2022-07-28T00:32:43.365Z,14.90
2022-07-28T00:35:13.243Z,14.80
2022-07-28T00:37:51.885Z,14.70
2022-07-28T00:40:23.033Z,14.60
2022-07-28T00:42:52.783Z,14.50
2022-07-28T00:45:24.914Z,14.50
2022-07-28T00:47:54.163Z,14.50
2022-07-28T00:50:25.845Z,14.40
2022-07-28T00:52:57.208Z,14.40
2022-07-28T00:55:29.664Z,14.40
2022-07-28T00:58:07.966Z,14.30
2022-07-28T01:00:39.508Z,14.30
2022-07-28T01:03:16.945Z,14.20
2022-07-28T01:06:00.681Z,14.10
2022-07-28T01:08:37.866Z,14.00
2022-07-28T01:11:53.625Z,13.90
2022-07-28T01:14:53.958Z,13.90
2022-07-28T01:18:05.015Z,13.80
2022-07-28T01:21:04.280Z,13.80
2022-07-28T01:24:04.631Z,13.70
2022-07-28T01:27:12.239Z,13.80
2022-07-28T01:30:15.875Z,13.70
2022-07-28T01:32:55.145Z,13.60
2022-07-28T01:35:34.061Z,13.50
2022-07-28T01:38:25.699Z,13.50
2022-07-28T01:41:01.959Z,13.50
2022-07-28T01:43:44.409Z,13.50
2022-07-28T01:46:15.046Z,13.50
2022-07-28T01:48:46.432Z,13.50
2022-07-28T01:51:16.454Z,13.40
2022-07-28T01:53:46.352Z,13.40
2022-07-28T01:56:28.164Z,13.40
2022-07-28T01:59:03.621Z,13.30
2022-07-28T02:01:35.050Z,13.30
2022-07-28T02:04:05.609Z,13.30
2022-07-28T02:06:38.141Z,13.20
2022-07-28T02:09:08.928Z,13.30
2022-07-28T02:11:42.617Z,13.30
2022-07-28T02:14:23.679Z,13.30
2022-07-28T02:17:02.923Z,13.30
2022-07-28T02:19:39.626Z,13.40
2022-07-28T02:22:10.076Z,13.30
2022-07-28T02:24:40.525Z,13.40
2022-07-28T02:27:35.003Z,13.40
2022-07-28T02:30:32.453Z,13.40
2022-07-28T02:33:13.409Z,13.40
2022-07-28T02:35:59.353Z,13.30
2022-07-28T02:38:44.047Z,13.30
2022-07-28T02:41:20.354Z,13.20
2022-07-28T02:44:01.684Z,13.20
2022-07-28T02:46:43.275Z,13.20
2022-07-28T02:49:39.226Z,13.20
2022-07-28T02:52:19.913Z,13.20
2022-07-28T02:54:56.209Z,13.10
2022-07-28T02:57:25.886Z,13.10
2022-07-28T03:00:01.841Z,13.00
2022-07-28T03:02:31.459Z,13.00
2022-07-28T03:05:09.020Z,12.90
2022-07-28T03:07:50.351Z,12.90
2022-07-28T03:10:34.835Z,12.90
2022-07-28T03:13:13.678Z,13.00
2022-07-28T03:15:43.039Z,13.00
2022-07-28T03:18:13.611Z,13.00
2022-07-28T03:20:41.446Z,13.00
2022-07-28T03:23:09.524Z,13.00
2022-07-28T03:25:51.258Z,13.10
2022-07-28T03:28:24.537Z,13.10
2022-07-28T03:31:03.310Z,13.20
2022-07-28T03:33:35.116Z,13.10
2022-07-28T03:36:21.893Z,13.10
2022-07-28T03:38:58.955Z,13.10
2022-07-28T03:41:28.357Z,13.10
2022-07-28T03:44:08.854Z,13.10
2022-07-28T03:46:45.385Z,13.10
2022-07-28T03:49:21.919Z,13.10
2022-07-28T03:51:50.816Z,13.10
2022-07-28T03:54:21.810Z,13.20
2022-07-28T03:56:49.635Z,13.20
2022-07-28T03:59:17.836Z,13.20
2022-07-28T04:01:47.416Z,13.20
2022-07-28T04:04:15.697Z,13.20
2022-07-28T04:06:47.017Z,13.20
2022-07-28T04:09:17.594Z,13.20
2022-07-28T04:11:46.455Z,13.20
2022-07-28T04:14:17.072Z,13.20
2022-07-28T04:16:46.329Z,13.20
2022-07-28T04:19:14.640Z,13.20
2022-07-28T04:21:44.737Z,13.30
2022-07-28T04:24:21.181Z,13.30
2022-07-28T04:26:51.129Z,13.30
2022-07-28T04:29:27.173Z,13.30
2022-07-28T04:31:56.322Z,13.40
2022-07-28T04:34:24.627Z,13.40
2022-07-28T04:36:51.298Z,13.40
2022-07-28T04:39:26.714Z,13.50
2022-07-28T04:41:54.690Z,13.50
2022-07-28T04:44:22.462Z,13.50
2022-07-28T04:46:59.030Z,13.50
2022-07-28T04:49:28.442Z,13.60
2022-07-28T04:52:00.407Z,13.60
2022-07-28T04:54:36.347Z,13.60
2022-07-28T04:57:06.253Z,13.60
2022-07-28T04:59:40.580Z,13.60
2022-07-28T05:02:09.175Z,13.60
2022-07-28T05:04:39.206Z,13.70
2022-07-28T05:07:07.659Z,13.70
2022-07-28T05:09:36.953Z,13.70
2022-07-28T05:12:03.840Z,13.70
2022-07-28T05:14:32.645Z,13.80
2022-07-28T05:17:03.888Z,13.90
2022-07-28T05:19:33.145Z,13.90
2022-07-28T05:22:03.638Z,14.00
2022-07-28T05:24:33.914Z,14.00
2022-07-28T05:27:02.080Z,14.00
2022-07-28T05:29:37.634Z,14.10
2022-07-28T05:32:18.462Z,14.10
2022-07-28T05:34:47.556Z,14.10
2022-07-28T05:37:15.357Z,14.30
2022-07-28T05:39:52.322Z,14.30
2022-07-28T05:42:22.654Z,14.20
2022-07-28T05:44:58.775Z,14.30
2022-07-28T05:47:29.034Z,14.30
2022-07-28T05:50:03.109Z,14.30
2022-07-28T05:52:32.705Z,14.40
2022-07-28T05:55:00.243Z,14.50
2022-07-28T05:57:28.115Z,14.50
2022-07-28T05:59:56.932Z,14.60
2022-07-28T06:02:25.934Z,14.60
2022-07-28T06:04:58.812Z,14.60
2022-07-28T06:07:43.616Z,14.70
2022-07-28T06:10:25.395Z,14.60
2022-07-28T06:13:06.894Z,14.60
2022-07-28T06:15:38.398Z,14.70
2022-07-28T06:18:08.098Z,14.60
2022-07-28T06:20:38.251Z,14.70
2022-07-28T06:23:15.047Z,14.80
2022-07-28T06:25:51.907Z,14.90
2022-07-28T06:28:22.942Z,14.90
2022-07-28T06:30:53.239Z,15.00
2022-07-28T06:33:21.329Z,15.10
2022-07-28T06:35:57.075Z,15.10
2022-07-28T06:38:26.637Z,15.20
2022-07-28T06:40:57.522Z,15.20
2022-07-28T06:43:25.947Z,15.30
2022-07-28T06:45:54.852Z,15.30
2022-07-28T06:48:25.863Z,15.40
2022-07-28T06:51:04.125Z,15.40
2022-07-28T06:53:33.596Z,15.50
2022-07-28T06:56:04.883Z,15.50
2022-07-28T06:58:33.698Z,15.60
2022-07-28T07:01:03.841Z,15.70
2022-07-28T07:03:37.472Z,15.70
2022-07-28T07:06:05.358Z,15.80
2022-07-28T07:08:43.311Z,15.80
2022-07-28T07:11:12.639Z,15.70
2022-07-28T07:13:54.541Z,15.80
2022-07-28T07:16:26.781Z,15.80
2022-07-28T07:18:55.496Z,15.90
2022-07-28T07:21:27.665Z,16.00
2022-07-28T07:23:55.016Z,16.00
2022-07-28T07:26:22.005Z,16.10
2022-07-28T07:28:50.495Z,16.10
2022-07-28T07:31:21.750Z,16.10
2022-07-28T07:33:52.005Z,16.10
2022-07-28T07:36:21.190Z,16.00
2022-07-28T07:38:49.192Z,16.10
2022-07-28T07:41:21.560Z,16.10
2022-07-28T07:43:52.039Z,16.20
2022-07-28T07:46:28.697Z,16.20
2022-07-28T07:48:58.153Z,16.20
2022-07-28T07:51:27.093Z,16.30
2022-07-28T07:53:58.195Z,16.40
2022-07-28T07:56:28.444Z,16.40
2022-07-28T07:58:57.675Z,16.50
2022-07-28T08:01:30.056Z,16.60
2022-07-28T08:04:00.204Z,16.80
2022-07-28T08:06:30.589Z,16.80
2022-07-28T08:08:59.213Z,16.90
2022-07-28T08:11:28.126Z,17.00
2022-07-28T08:13:59.272Z,17.00
2022-07-28T08:16:28.053Z,16.90
2022-07-28T08:18:55.596Z,17.00
2022-07-28T08:21:27.126Z,17.00
2022-07-28T08:23:58.411Z,17.00
2022-07-28T08:26:26.927Z,17.20
2022-07-28T08:28:57.330Z,17.40
2022-07-28T08:31:25.786Z,17.70
2022-07-28T08:34:03.948Z,17.80
2022-07-28T08:37:02.390Z,17.90
2022-07-28T08:39:32.812Z,18.00
2022-07-28T08:42:25.942Z,18.10
2022-07-28T08:45:04.583Z,18.00
2022-07-28T08:47:58.647Z,18.00
2022-07-28T08:50:39.310Z,17.90
2022-07-28T08:53:13.359Z,17.90
2022-07-28T08:55:40.571Z,17.90
2022-07-28T08:58:13.847Z,18.10
2022-07-28T09:00:41.735Z,18.20
2022-07-28T09:03:09.109Z,18.30
2022-07-28T09:05:43.045Z,18.40
2022-07-28T09:08:15.230Z,18.50
2022-07-28T09:10:50.200Z,18.60
2022-07-28T09:13:19.442Z,18.40
2022-07-28T09:15:48.903Z,18.30
2022-07-28T09:18:25.680Z,18.30
2022-07-28T09:21:00.012Z,18.50
2022-07-28T09:23:50.545Z,18.50
2022-07-28T09:26:20.108Z,18.60
2022-07-28T09:28:51.624Z,18.60
2022-07-28T09:31:19.735Z,18.60
2022-07-28T09:34:04.423Z,18.60
2022-07-28T09:36:41.448Z,18.50
2022-07-28T09:39:10.087Z,18.60
2022-07-28T09:41:48.861Z,18.80
2022-07-28T09:44:31.639Z,18.80
2022-07-28T09:46:59.716Z,18.90
2022-07-28T09:49:41.903Z,18.90
2022-07-28T09:52:14.542Z,19.00
2022-07-28T09:55:16.557Z,19.00
2022-07-28T09:57:52.781Z,19.30
2022-07-28T10:00:34.108Z,19.30
2022-07-28T10:03:02.867Z,19.40
2022-07-28T10:05:53.714Z,19.30
2022-07-28T10:08:45.548Z,19.10
2022-07-28T10:11:26.598Z,19.00
2022-07-28T10:14:07.408Z,19.10
2022-07-28T10:16:46.188Z,19.10
2022-07-28T10:19:16.480Z,19.10
2022-07-28T10:21:52.997Z,19.10
2022-07-28T10:24:27.916Z,19.00
2022-07-28T10:27:10.570Z,19.00
2022-07-28T10:29:51.993Z,19.10
2022-07-28T10:32:20.289Z,19.10
2022-07-28T10:35:02.876Z,19.20
2022-07-28T10:37:33.450Z,19.20
2022-07-28T10:40:10.628Z,19.10
2022-07-28T10:42:42.178Z,19.10
2022-07-28T10:45:14.381Z,19.10
2022-07-28T10:48:00.108Z,19.10
2022-07-28T10:50:28.653Z,19.20
2022-07-28T10:53:05.624Z,19.30
2022-07-28T10:56:05.664Z,19.40
2022-07-28T10:59:01.472Z,19.60
2022-07-28T11:01:53.156Z,19.80
2022-07-28T11:04:54.762Z,19.90
2022-07-28T11:07:31.575Z,19.90
2022-07-28T11:10:18.364Z,19.90
2022-07-28T11:12:48.897Z,19.80
2022-07-28T11:15:50.883Z,19.90
2022-07-28T11:18:24.703Z,19.90
2022-07-28T11:21:03.278Z,19.80
2022-07-28T11:23:59.296Z,19.80
2022-07-28T11:26:31.298Z,19.60
2022-07-28T11:29:15.976Z,19.50
2022-07-28T11:31:55.875Z,19.40
2022-07-28T11:34:27.655Z,19.50
2022-07-28T11:37:10.075Z,19.80
2022-07-28T11:39:44.028Z,20.00
2022-07-28T11:42:31.108Z,20.20
2022-07-28T11:45:20.492Z,20.30
2022-07-28T11:48:15.392Z,20.20
2022-07-28T11:51:06.635Z,20.20
2022-07-28T11:53:47.898Z,20.20
2022-07-28T11:56:31.972Z,20.20
2022-07-28T11:59:06.106Z,20.10
2022-07-28T12:01:37.069Z,20.00
2022-07-28T12:04:13.463Z,20.10
2022-07-28T12:06:51.361Z,20.40
2022-07-28T12:09:26.250Z,20.40
2022-07-28T12:11:56.650Z,20.70
2022-07-28T12:14:24.131Z,21.20
2022-07-28T12:16:52.762Z,21.40
2022-07-28T12:19:22.651Z,21.60
2022-07-28T12:22:00.803Z,22.10
2022-07-28T12:24:30.927Z,22.60
2022-07-28T12:27:08.299Z,23.10
2022-07-28T12:29:38.568Z,23.70
2022-07-28T12:32:15.726Z,24.10
2022-07-28T12:34:48.387Z,24.50
2022-07-28T12:37:16.717Z,24.90
2022-07-28T12:39:52.539Z,25.50
2022-07-28T12:42:20.630Z,25.80
2022-07-28T12:44:59.689Z,26.00
2022-07-28T12:47:27.155Z,26.20
2022-07-28T12:50:19.598Z,26.30
2022-07-28T12:53:07.777Z,26.80
2022-07-28T12:55:38.111Z,27.10
2022-07-28T12:58:27.384Z,27.40
2022-07-28T13:01:05.614Z,27.30
2022-07-28T13:03:34.675Z,27.30
2022-07-28T13:06:22.519Z,27.10
2022-07-28T13:08:55.674Z,27.10
2022-07-28T13:11:47.656Z,27.20
2022-07-28T13:14:16.835Z,27.50
2022-07-28T13:17:02.513Z,27.70
2022-07-28T13:19:32.584Z,28.00
2022-07-28T13:22:08.809Z,28.30
2022-07-28T13:24:46.021Z,28.60
2022-07-28T13:27:16.226Z,28.90
2022-07-28T13:29:52.322Z,29.10
2022-07-28T13:32:24.256Z,29.10
2022-07-28T13:35:02.013Z,29.40
2022-07-28T13:37:40.310Z,29.50
2022-07-28T13:40:12.520Z,29.40
2022-07-28T13:42:52.729Z,29.60
2022-07-28T13:45:23.704Z,29.70
2022-07-28T13:47:53.490Z,29.80
2022-07-28T13:50:27.723Z,29.50
2022-07-28T13:53:03.045Z,29.10
2022-07-28T13:55:32.995Z,28.90
2022-07-28T13:58:04.327Z,29.00
2022-07-28T14:00:43.687Z,29.40
2022-07-28T14:03:13.586Z,29.50
2022-07-28T14:05:42.700Z,29.50
2022-07-28T14:08:12.249Z,29.90
2022-07-28T14:10:49.111Z,29.80
2022-07-28T14:13:21.675Z,28.80
2022-07-28T14:15:50.665Z,28.60
2022-07-28T14:18:30.440Z,28.40
2022-07-28T14:21:00.121Z,27.80
2022-07-28T14:23:27.943Z,27.20
2022-07-28T14:26:18.356Z,26.80
2022-07-28T14:28:50.203Z,26.20
2022-07-28T14:31:20.582Z,26.20
2022-07-28T14:33:54.678Z,26.20
2022-07-28T14:36:25.164Z,25.80
2022-07-28T14:38:56.781Z,25.80
2022-07-28T14:41:33.081Z,26.20
2022-07-28T14:44:01.810Z,26.70
2022-07-28T14:46:30.587Z,27.10
2022-07-28T14:49:08.003Z,27.40
2022-07-28T14:51:39.382Z,27.30
2022-07-28T14:54:16.386Z,27.40
2022-07-28T14:56:46.660Z,27.50
2022-07-28T14:59:16.359Z,27.20
2022-07-28T15:01:44.432Z,27.30
2022-07-28T15:04:21.031Z,27.20
2022-07-28T15:06:50.312Z,27.10
2022-07-28T15:09:20.773Z,27.20
2022-07-28T15:11:47.554Z,26.90
2022-07-28T15:14:22.382Z,26.90
2022-07-28T15:16:50.741Z,27.10
2022-07-28T15:19:30.243Z,27.30
2022-07-28T15:22:00.127Z,27.50
2022-07-28T15:24:32.332Z,27.60
2022-07-28T15:26:59.944Z,27.70
2022-07-28T15:29:27.982Z,27.40
2022-07-28T15:32:13.129Z,27.40
2022-07-28T15:34:51.120Z,27.70
2022-07-28T15:37:21.705Z,27.70
2022-07-28T15:39:58.485Z,28.00
2022-07-28T15:42:26.587Z,27.90
2022-07-28T15:45:03.074Z,27.90
2022-07-28T15:47:34.713Z,27.90
2022-07-28T15:50:04.350Z,28.10
2022-07-28T15:52:36.478Z,28.30
2022-07-28T15:55:06.776Z,28.50
2022-07-28T15:57:37.880Z,28.50
2022-07-28T16:00:15.712Z,28.60
2022-07-28T16:02:43.661Z,28.80
2022-07-28T16:05:14.024Z,28.80
2022-07-28T16:07:45.236Z,28.70
2022-07-28T16:10:22.105Z,28.60
2022-07-28T16:12:59.019Z,28.60
2022-07-28T16:15:29.591Z,28.70
2022-07-28T16:18:05.807Z,28.60
2022-07-28T16:20:33.850Z,28.60
2022-07-28T16:23:03.252Z,28.20
2022-07-28T16:25:33.445Z,28.10
2022-07-28T16:28:03.642Z,28.10
2022-07-28T16:30:33.726Z,28.10
2022-07-28T16:33:02.469Z,27.90
2022-07-28T16:35:34.495Z,27.50
2022-07-28T16:38:07.152Z,27.40
2022-07-28T16:40:37.036Z,27.40
2022-07-28T16:43:06.245Z,27.40
2022-07-28T16:45:43.060Z,27.50
2022-07-28T16:48:13.855Z,27.60
2022-07-28T16:50:43.514Z,27.70
2022-07-28T16:53:17.278Z,27.60
2022-07-28T16:55:48.010Z,27.40
2022-07-28T16:58:17.736Z,27.20
2022-07-28T17:00:49.808Z,26.80
2022-07-28T17:03:19.559Z,26.40
2022-07-28T17:05:48.774Z,26.30
2022-07-28T17:08:21.345Z,26.30
2022-07-28T17:10:48.099Z,26.50
2022-07-28T17:13:16.470Z,26.60
2022-07-28T17:15:45.896Z,26.70
2022-07-28T17:18:18.560Z,26.70
2022-07-28T17:20:59.000Z,26.70
2022-07-28T17:23:36.382Z,26.50
2022-07-28T17:28:53.292Z,26.20
2022-07-28T17:31:24.702Z,26.20
2022-07-28T17:33:53.772Z,26.10
2022-07-28T17:36:21.794Z,26.10
2022-07-28T17:38:59.509Z,26.00
2022-07-28T17:41:30.205Z,25.90
2022-07-28T17:44:05.113Z,25.90
2022-07-28T17:46:44.889Z,25.80
2022-07-28T17:49:13.369Z,25.80
2022-07-28T17:51:45.455Z,25.70
2022-07-28T17:54:13.683Z,25.60
2022-07-28T17:56:43.931Z,25.40
2022-07-28T17:59:15.329Z,25.40
2022-07-28T18:01:45.574Z,25.40
2022-07-28T18:04:13.438Z,25.50
2022-07-28T18:06:44.252Z,25.40
2022-07-28T18:09:12.607Z,25.30
2022-07-28T18:11:57.304Z,25.10
2022-07-28T18:14:29.340Z,25.00
2022-07-28T18:17:00.405Z,24.90
2022-07-28T18:19:28.702Z,24.90
2022-07-28T18:21:58.341Z,24.70
2022-07-28T18:24:27.193Z,24.50
2022-07-28T18:26:58.250Z,24.50
2022-07-28T18:29:25.340Z,24.30
2022-07-28T18:32:11.838Z,24.10
2022-07-28T18:34:41.361Z,24.10
2022-07-28T18:37:12.201Z,23.90
2022-07-28T18:39:41.732Z,23.80
2022-07-28T18:42:12.165Z,23.70
2022-07-28T18:44:41.486Z,23.60
2022-07-28T18:47:09.261Z,23.40
2022-07-28T18:49:45.743Z,23.30
2022-07-28T18:52:14.083Z,23.20
2022-07-28T18:54:41.180Z,23.10
2022-07-28T18:57:09.045Z,23.00
2022-07-28T18:59:41.522Z,22.80
2022-07-28T19:02:14.044Z,22.70
2022-07-28T19:04:43.621Z,22.60
2022-07-28T19:07:16.784Z,22.50
2022-07-28T19:09:44.088Z,22.40
2022-07-28T19:12:12.525Z,22.30
2022-07-28T19:14:40.580Z,22.20
2022-07-28T19:17:12.430Z,22.10
2022-07-28T19:19:41.720Z,21.90
2022-07-28T19:22:10.341Z,21.70
2022-07-28T19:24:39.370Z,21.70
2022-07-28T19:27:15.381Z,21.50
2022-07-28T19:29:45.578Z,21.40
2022-07-28T19:32:12.521Z,21.30
2022-07-28T19:34:48.913Z,21.30
2022-07-28T19:37:21.115Z,21.30
2022-07-28T19:39:50.856Z,21.20
2022-07-28T19:42:27.403Z,21.10
2022-07-28T19:44:56.089Z,21.00
2022-07-28T19:47:31.165Z,21.00
2022-07-28T19:50:01.291Z,20.90
2022-07-28T19:52:32.848Z,20.90
2022-07-28T19:55:04.379Z,20.90
2022-07-28T19:57:41.919Z,20.80
2022-07-28T20:00:19.745Z,20.80
2022-07-28T20:02:56.259Z,20.60
2022-07-28T20:05:32.381Z,20.60
2022-07-28T20:08:00.911Z,20.60
2022-07-28T20:10:31.026Z,20.50
2022-07-28T20:13:09.533Z,20.50
2022-07-28T20:15:43.465Z,20.40
2022-07-28T20:18:21.169Z,20.30
2022-07-28T20:20:49.169Z,20.30
2022-07-28T20:23:19.124Z,20.30
2022-07-28T20:25:48.598Z,20.30
2022-07-28T20:28:17.370Z,20.30
2022-07-28T20:30:47.879Z,20.20
2022-07-28T20:33:16.236Z,20.20
2022-07-28T20:35:45.058Z,20.20
2022-07-28T20:38:16.594Z,20.10
2022-07-28T20:40:46.432Z,20.00
2022-07-28T20:43:15.999Z,19.90
2022-07-28T20:45:49.618Z,19.80
2022-07-28T20:48:26.886Z,19.80
2022-07-28T20:50:57.136Z,19.80
2022-07-28T20:53:26.703Z,19.80
2022-07-28T20:55:55.811Z,19.70
2022-07-28T20:58:27.255Z,19.70
2022-07-28T21:00:57.281Z,19.70
2022-07-28T21:03:25.217Z,19.70
2022-07-28T21:05:54.664Z,19.70
2022-07-28T21:08:24.257Z,19.60
2022-07-28T21:10:55.323Z,19.60
2022-07-28T21:13:31.508Z,19.60
2022-07-28T21:16:01.726Z,19.60
2022-07-28T21:18:30.470Z,19.50
2022-07-28T21:21:01.469Z,19.50
2022-07-28T21:23:28.535Z,19.40
2022-07-28T21:25:56.619Z,19.40
2022-07-28T21:28:25.845Z,19.40
2022-07-28T21:30:54.645Z,19.30
2022-07-28T21:33:29.802Z,19.30
2022-07-28T21:36:06.796Z,19.30
2022-07-28T21:38:35.753Z,19.20
2022-07-28T21:41:03.648Z,19.20
2022-07-28T21:43:32.678Z,19.20
2022-07-28T21:46:08.603Z,19.20
2022-07-28T21:48:44.962Z,19.10
2022-07-28T21:51:18.926Z,19.00
2022-07-28T21:53:51.613Z,19.00
2022-07-28T21:56:27.539Z,19.00
2022-07-28T21:58:55.657Z,19.00
2022-07-28T22:01:25.986Z,18.90
2022-07-28T22:03:53.141Z,18.90
2022-07-28T22:06:20.792Z,18.90
2022-07-28T22:08:49.135Z,18.80
2022-07-28T22:11:16.533Z,18.80
2022-07-28T22:13:44.478Z,18.80
2022-07-28T22:16:12.708Z,18.70
2022-07-28T22:18:40.530Z,18.70
2022-07-28T22:21:10.699Z,18.60
2022-07-28T22:23:40.751Z,18.60
2022-07-28T22:26:20.598Z,18.50
2022-07-28T22:28:49.745Z,18.50
2022-07-28T22:31:18.015Z,18.50
2022-07-28T22:33:49.169Z,18.40
2022-07-28T22:36:19.351Z,18.40
2022-07-28T22:38:47.392Z,18.30
2022-07-28T22:41:19.007Z,18.30
2022-07-28T22:43:52.251Z,18.20
2022-07-28T22:46:22.487Z,18.20
2022-07-28T22:48:59.343Z,18.10
2022-07-28T22:51:29.824Z,18.10
2022-07-28T22:53:58.504Z,18.10
2022-07-28T22:56:36.399Z,18.10
2022-07-28T22:59:05.203Z,18.00
2022-07-28T23:01:34.927Z,18.00
2022-07-28T23:04:04.754Z,17.90
2022-07-28T23:06:34.161Z,17.90
2022-07-28T23:09:06.532Z,17.90
2022-07-28T23:11:37.248Z,17.80
2022-07-28T23:14:05.275Z,17.80
2022-07-28T23:16:37.189Z,17.80
2022-07-28T23:19:07.777Z,17.70
2022-07-28T23:21:39.672Z,17.70
2022-07-28T23:24:07.140Z,17.60
2022-07-28T23:26:36.599Z,17.60
2022-07-28T23:29:04.535Z,17.60
2022-07-28T23:31:40.467Z,17.50
2022-07-28T23:34:09.833Z,17.60
2022-07-28T23:36:40.620Z,17.40
2022-07-28T23:39:08.765Z,17.30
2022-07-28T23:41:36.789Z,17.30
2022-07-28T23:44:06.950Z,17.20
2022-07-28T23:46:43.604Z,17.20
2022-07-28T23:49:13.388Z,17.20
2022-07-28T23:51:47.472Z,17.20
2022-07-28T23:54:26.514Z,17.20
2022-07-28T23:56:55.051Z,17.20
2022-07-28T23:59:31.051Z,17.10
